Aviation Digital Data Service (ADDS)

Output produced by METARs form (1646 UTC 18 February 2019)
found at http://www.aviationweather.gov/metar/data/
 
METAR text: EPLL 181630Z 09001KT 6000 NSC 08/02 Q1020
Conditions at: EPLL (LODZ/LUBLINEK , PL) observed 1630 UTC 18 February 2019
Temperature: 8.0°C (46°F)
Dewpoint: 2.0°C (36°F) [RH = 66%]
Pressure (altimeter): 30.12 inches Hg (1020.0 mb)
Winds: from the E (90 degrees) at 1 MPH (1 knots; 0.5 m/s)
Visibility: 4 miles ( 6 km)
Ceiling: at least 12,000 feet AGL
Clouds: sky clear below 12,000 feet AGL
Weather: no significant weather observed at this time

METAR text: EPLL 181600Z 10003KT 7000 NSC 09/02 Q1020
Conditions at: EPLL (LODZ/LUBLINEK , PL) observed 1600 UTC 18 February 2019
Temperature: 9.0°C (48°F)
Dewpoint: 2.0°C (36°F) [RH = 61%]
Pressure (altimeter): 30.12 inches Hg (1020.0 mb)
Winds: from the E (100 degrees) at 3 MPH (3 knots; 1.5 m/s)
Visibility: 4 miles ( 7 km)
Ceiling: at least 12,000 feet AGL
Clouds: sky clear below 12,000 feet AGL
Weather: no significant weather observed at this time

Forecast for: EPLL (LODZ/LUBLINEK , PL)
Text: TAF EPLL 181130Z 1812/1912 14005KT CAVOK
Forecast period: 1200 to 1700 UTC 18 February 2019
Forecast type: FROM: standard forecast or significant change
Winds: from the SE (140 degrees) at 6 MPH (5 knots; 2.6 m/s)
Visibility: 6 or more miles 10+ km)
Ceiling: unknown
Clouds: missing
Weather: NSW  (no significant weather)
Text: BECMG 1817/1819 1500 BR
Forecast period: 1700 UTC 18 February 2019 to 0800 UTC 19 February 2019
Forecast type: BECOMING: Conditions expected to become as follows by 1900 UTC 18 February 2019
Winds: from the SE (140 degrees) at 6 MPH (5 knots; 2.6 m/s)
Visibility: 0.93 miles (1.50 km)
Ceiling: unknown
Clouds: missing
Weather: BR  (mist)
Text: PROB40 1818/1906 0400 FG
Forecast period: 1800 UTC 18 February 2019 to 0600 UTC 19 February 2019
Forecast type: PROBABLE: 40 percent likelihood of the following during this time
Visibility: 0.25 miles (0.40 km)
Ceiling: unknown
Clouds: missing
Weather: FG  (fog)
Text: BECMG 1908/1910 27010KT CAVOK
Forecast period: 0800 to 1200 UTC 19 February 2019
Forecast type: BECOMING: Conditions expected to become as follows by 1000 UTC 19 February 2019
Winds: from the W (270 degrees) at 12 MPH (10 knots; 5.1 m/s)
Visibility: 6 or more miles 10+ km)
Ceiling: unknown
Clouds: missing
Weather: NSW  (no significant weather)